Time;durP1;ratioP1;P1;durP2;ratioP2;P2;SDS_P1;SDS_P2;PMS_P1;PMS_P2;Temp;Humidity;BMP_temperature;BMP_pressure;BME280_temperature;BME280_humidity;BME280_pressure;Samples;Min_cycle;Max_cycle;Signal;HPM_P1;HPM_P2
2023/05/04 00:00:08;;;;;;;1.05;0.70;;;18.50;1.00;;;;;;4842998;29;20042;-44
2023/05/04 00:02:37;;;;;;;2.10;0.80;;;18.50;1.00;;;;;;4842982;29;20038;-45
2023/05/04 00:05:05;;;;;;;2.40;0.80;;;18.50;1.00;;;;;;4842705;29;20038;-43
2023/05/04 00:07:32;;;;;;;2.97;1.17;;;18.50;1.00;;;;;;4957981;23;20118;-44
2023/05/04 00:09:59;;;;;;;1.42;0.90;;;18.50;1.00;;;;;;4835862;29;20047;-43
2023/05/04 00:12:27;;;;;;;1.98;1.20;;;18.50;1.00;;;;;;4832072;29;20087;-43
2023/05/04 00:14:54;;;;;;;3.70;1.17;;;18.40;1.00;;;;;;4841201;29;20042;-43
2023/05/04 00:17:21;;;;;;;1.15;0.57;;;18.40;1.00;;;;;;4836952;29;20052;-46
2023/05/04 00:19:48;;;;;;;1.65;0.70;;;18.40;1.00;;;;;;4840620;29;20398;-45
2023/05/04 00:22:14;;;;;;;2.03;0.73;;;18.40;1.00;;;;;;4842696;29;20113;-43
2023/05/04 00:24:43;;;;;;;3.70;1.30;;;18.40;1.00;;;;;;4840623;29;20049;-45
2023/05/04 00:27:09;;;;;;;0.90;0.70;;;18.40;1.00;;;;;;4835844;29;20077;-44
2023/05/04 00:29:36;;;;;;;1.83;0.82;;;18.40;1.00;;;;;;4840888;29;20046;-43
2023/05/04 00:32:03;;;;;;;3.38;1.15;;;18.40;1.00;;;;;;4842440;29;20044;-43
2023/05/04 00:34:32;;;;;;;1.92;1.02;;;18.40;1.00;;;;;;4841958;29;20042;-43
2023/05/04 00:39:57;;;;;;;2.45;0.68;;;18.40;1.00;;;;;;4861448;23;20054;-44
2023/05/04 00:42:24;;;;;;;1.98;0.90;;;18.30;1.00;;;;;;4833217;29;20042;-43
2023/05/04 00:44:50;;;;;;;3.10;1.02;;;18.30;1.00;;;;;;4832990;29;20057;-45
2023/05/04 00:47:18;;;;;;;1.70;0.70;;;18.30;1.00;;;;;;4835997;29;20419;-45
2023/05/04 00:49:45;;;;;;;2.22;0.77;;;18.30;1.00;;;;;;4839654;29;20050;-46
2023/05/04 00:52:13;;;;;;;1.50;0.68;;;18.30;1.00;;;;;;4842151;29;20081;-46
2023/05/04 00:54:44;;;;;;;2.45;1.25;;;18.30;1.00;;;;;;4840406;29;20090;-45
2023/05/04 00:57:11;;;;;;;3.00;1.45;;;18.30;1.00;;;;;;4827408;29;20045;-45
2023/05/04 00:59:38;;;;;;;1.20;0.60;;;18.30;1.00;;;;;;4842095;29;20388;-44
2023/05/04 01:02:06;;;;;;;1.85;0.90;;;18.30;1.00;;;;;;4840679;29;20538;-43
2023/05/04 01:04:33;;;;;;;1.15;0.80;;;18.30;1.00;;;;;;4841601;29;20102;-44
2023/05/04 01:07:10;;;;;;;3.50;1.20;;;18.30;1.00;;;;;;4840445;29;20058;-46
2023/05/04 01:09:49;;;;;;;2.47;0.70;;;18.20;1.00;;;;;;4836419;29;20034;-44
2023/05/04 01:12:36;;;;;;;1.05;0.50;;;18.20;1.00;;;;;;4831751;29;20050;-46
2023/05/04 01:15:04;;;;;;;1.10;0.80;;;18.20;1.00;;;;;;4834044;29;20121;-47
2023/05/04 01:17:31;;;;;;;3.05;0.77;;;18.20;1.00;;;;;;4835410;29;20095;-46
2023/05/04 01:19:58;;;;;;;1.33;0.80;;;18.20;1.00;;;;;;4839357;29;20054;-43
2023/05/04 01:22:25;;;;;;;4.00;0.88;;;18.20;1.00;;;;;;4840202;29;20046;-45
2023/05/04 01:24:53;;;;;;;1.40;0.70;;;18.20;1.00;;;;;;4841272;29;20446;-47
2023/05/04 01:27:28;;;;;;;3.70;1.40;;;18.20;1.00;;;;;;4832696;29;20042;-45
2023/05/04 01:30:07;;;;;;;3.00;1.20;;;18.20;1.00;;;;;;4841560;29;20070;-43
2023/05/04 01:32:36;;;;;;;2.60;1.27;;;18.20;1.00;;;;;;4841551;29;20439;-43
2023/05/04 01:35:03;;;;;;;2.80;1.00;;;18.10;1.00;;;;;;4832228;29;20463;-45
2023/05/04 01:37:30;;;;;;;3.33;1.13;;;18.10;1.00;;;;;;4841543;29;20050;-45
2023/05/04 01:39:57;;;;;;;1.00;0.63;;;18.10;1.00;;;;;;4831742;29;20137;-45
2023/05/04 01:42:24;;;;;;;2.83;1.30;;;18.10;1.00;;;;;;4828266;29;20049;-45
2023/05/04 01:44:50;;;;;;;3.88;1.08;;;18.10;1.00;;;;;;4832047;29;20054;-43
2023/05/04 01:47:17;;;;;;;3.45;1.00;;;18.10;1.00;;;;;;4841319;29;20050;-44
2023/05/04 01:49:44;;;;;;;3.55;1.35;;;18.10;1.00;;;;;;4832217;29;20046;-46
2023/05/04 01:52:11;;;;;;;1.67;0.90;;;18.10;1.00;;;;;;4828881;29;20042;-44
2023/05/04 01:54:38;;;;;;;1.83;0.85;;;18.00;1.00;;;;;;4836135;29;20060;-46
2023/05/04 01:57:04;;;;;;;2.63;1.15;;;18.00;1.00;;;;;;4832113;29;20388;-49
2023/05/04 01:59:31;;;;;;;1.25;0.80;;;18.00;1.00;;;;;;4839777;29;20049;-43
2023/05/04 02:01:58;;;;;;;2.45;0.60;;;18.10;1.00;;;;;;4839888;29;20050;-43
2023/05/04 02:04:26;;;;;;;2.75;0.85;;;18.00;1.00;;;;;;4839520;29;20068;-44
2023/05/04 02:06:52;;;;;;;1.77;1.10;;;18.00;1.00;;;;;;4840050;29;20046;-45
2023/05/04 02:09:19;;;;;;;2.50;0.88;;;18.00;1.00;;;;;;4840431;29;20054;-45
2023/05/04 02:11:46;;;;;;;3.95;0.90;;;18.00;1.00;;;;;;4839849;29;20046;-44
2023/05/04 02:14:12;;;;;;;3.63;1.25;;;18.00;1.00;;;;;;4831957;29;20048;-43
2023/05/04 02:16:39;;;;;;;2.55;0.95;;;18.00;1.00;;;;;;4839779;29;20093;-45
2023/05/04 02:19:06;;;;;;;2.65;1.50;;;18.00;1.00;;;;;;4839602;29;20064;-44
2023/05/04 02:21:34;;;;;;;2.45;0.80;;;18.00;1.00;;;;;;4833312;29;20415;-43
2023/05/04 02:24:03;;;;;;;4.18;1.08;;;17.90;1.00;;;;;;4838417;29;20057;-46
2023/05/04 02:26:30;;;;;;;2.17;1.02;;;18.00;1.00;;;;;;4839549;29;20058;-43
2023/05/04 02:28:57;;;;;;;2.42;0.95;;;17.90;1.00;;;;;;4839785;29;20122;-47
2023/05/04 02:31:24;;;;;;;1.73;1.00;;;17.90;1.00;;;;;;4839787;29;20057;-43
2023/05/04 02:33:52;;;;;;;5.60;1.77;;;17.90;1.00;;;;;;4840638;29;20590;-44
2023/05/04 02:36:19;;;;;;;2.58;1.05;;;17.90;1.00;;;;;;4839552;29;20050;-46
2023/05/04 02:38:46;;;;;;;2.70;1.17;;;17.90;1.00;;;;;;4840932;29;20064;-42
2023/05/04 02:41:12;;;;;;;2.03;1.08;;;17.90;1.00;;;;;;4877649;23;20492;-45
2023/05/04 02:43:39;;;;;;;5.13;1.45;;;17.90;1.00;;;;;;4828465;29;20073;-43
2023/05/04 02:46:06;;;;;;;1.80;0.90;;;17.90;1.00;;;;;;4832534;29;20392;-45
2023/05/04 02:48:33;;;;;;;3.42;1.20;;;17.90;1.00;;;;;;4843869;29;20069;-45
2023/05/04 02:51:00;;;;;;;1.90;1.08;;;17.80;1.00;;;;;;4835153;29;20050;-46
2023/05/04 02:53:26;;;;;;;2.85;1.00;;;17.80;1.00;;;;;;4842549;29;20042;-42
2023/05/04 02:55:53;;;;;;;1.73;0.88;;;17.80;1.00;;;;;;4842625;29;20053;-43
2023/05/04 02:58:20;;;;;;;2.75;1.10;;;17.80;1.00;;;;;;4834769;29;20045;-43
2023/05/04 03:00:46;;;;;;;2.08;1.17;;;17.80;1.00;;;;;;4842604;29;20448;-43
2023/05/04 03:03:13;;;;;;;2.80;1.15;;;17.80;1.00;;;;;;4843980;29;20042;-47
2023/05/04 03:05:40;;;;;;;3.03;1.00;;;17.80;1.00;;;;;;4843558;29;20514;-43
2023/05/04 03:08:09;;;;;;;1.90;1.05;;;17.80;1.00;;;;;;4842455;29;20085;-45
2023/05/04 03:10:36;;;;;;;3.03;1.10;;;17.80;1.00;;;;;;4838793;29;20452;-43
2023/05/04 03:13:04;;;;;;;2.58;1.40;;;17.80;1.00;;;;;;4835383;29;20046;-42
2023/05/04 03:15:32;;;;;;;1.52;1.42;;;17.80;1.00;;;;;;4831375;29;20070;-49
2023/05/04 03:18:00;;;;;;;3.20;1.25;;;17.80;1.00;;;;;;4840786;29;20053;-43
2023/05/04 03:20:28;;;;;;;2.63;1.10;;;17.70;1.00;;;;;;4834506;29;20038;-46
2023/05/04 03:22:56;;;;;;;3.20;1.10;;;17.80;1.00;;;;;;4835848;29;20130;-45
2023/05/04 03:25:24;;;;;;;1.13;0.80;;;17.80;1.00;;;;;;4841892;29;20049;-42
2023/05/04 03:27:51;;;;;;;4.70;1.23;;;17.70;1.00;;;;;;4841547;29;20052;-43
2023/05/04 03:30:18;;;;;;;3.28;1.40;;;17.70;1.00;;;;;;4835295;29;20054;-43
2023/05/04 03:32:47;;;;;;;1.88;0.95;;;17.70;1.00;;;;;;4842130;29;20563;-45
2023/05/04 03:35:15;;;;;;;4.70;0.90;;;17.70;1.00;;;;;;4843152;29;20128;-45
2023/05/04 03:37:51;;;;;;;7.60;1.73;;;17.70;1.00;;;;;;4841841;29;20103;-43
2023/05/04 03:40:21;;;;;;;1.67;0.90;;;17.70;1.00;;;;;;4841793;29;20046;-44
2023/05/04 03:42:51;;;;;;;2.20;1.63;;;17.70;1.00;;;;;;4827168;29;20050;-43
2023/05/04 03:45:18;;;;;;;1.80;1.00;;;17.70;1.00;;;;;;4833848;29;20074;-43
2023/05/04 03:47:45;;;;;;;3.00;1.55;;;17.70;1.00;;;;;;4834215;29;20050;-46
2023/05/04 03:50:12;;;;;;;2.33;1.00;;;17.70;1.00;;;;;;4838481;29;20054;-45
2023/05/04 03:52:39;;;;;;;3.00;1.15;;;17.70;1.00;;;;;;4837377;29;20422;-44
2023/05/04 03:55:07;;;;;;;2.75;1.02;;;17.60;1.00;;;;;;4841185;29;20053;-43
2023/05/04 03:57:34;;;;;;;1.73;1.10;;;17.60;1.00;;;;;;4842776;29;20046;-45
2023/05/04 04:00:00;;;;;;;3.03;1.17;;;17.60;1.00;;;;;;4833768;29;20468;-42
2023/05/04 04:02:29;;;;;;;3.55;1.38;;;17.60;1.00;;;;;;4841585;29;20038;-43
2023/05/04 04:04:56;;;;;;;3.38;1.52;;;17.60;1.00;;;;;;4841006;29;20045;-45
2023/05/04 04:07:23;;;;;;;6.10;1.33;;;17.60;1.00;;;;;;4841267;29;20639;-44
2023/05/04 04:09:51;;;;;;;2.05;1.20;;;17.60;1.00;;;;;;4840987;29;20116;-43
2023/05/04 04:12:19;;;;;;;4.22;1.23;;;17.60;1.00;;;;;;4838177;29;20041;-44
2023/05/04 04:14:47;;;;;;;2.38;1.20;;;17.60;1.00;;;;;;4835040;29;20053;-43
2023/05/04 04:17:14;;;;;;;5.47;1.40;;;17.60;1.00;;;;;;4834030;29;20587;-44
2023/05/04 04:19:41;;;;;;;1.75;1.30;;;17.60;1.00;;;;;;4841960;29;20049;-43
2023/05/04 04:22:08;;;;;;;7.20;1.23;;;17.60;1.00;;;;;;4842041;29;20559;-43
2023/05/04 04:24:34;;;;;;;2.97;1.25;;;17.60;1.00;;;;;;4840773;29;20460;-43
2023/05/04 04:27:01;;;;;;;3.33;1.80;;;17.60;1.00;;;;;;4842169;29;20045;-44
2023/05/04 04:29:28;;;;;;;7.03;2.03;;;17.60;1.00;;;;;;4837365;29;20066;-43
2023/05/04 04:31:55;;;;;;;4.88;1.60;;;17.60;1.00;;;;;;4839444;29;20052;-43
2023/05/04 04:34:22;;;;;;;5.10;1.58;;;17.50;1.00;;;;;;4841894;29;20069;-43
2023/05/04 04:36:50;;;;;;;9.70;1.48;;;17.50;1.00;;;;;;4842212;29;20392;-43
2023/05/04 04:39:16;;;;;;;2.92;1.98;;;17.50;1.00;;;;;;4842018;29;20050;-43
2023/05/04 04:42:16;;;;;;;3.22;1.25;;;17.50;1.00;;;;;;4842740;29;20110;-43
2023/05/04 04:44:43;;;;;;;3.88;1.17;;;17.50;1.00;;;;;;4779332;30;20070;-45
2023/05/04 04:47:10;;;;;;;4.07;1.30;;;17.50;1.00;;;;;;4785320;30;20039;-45
2023/05/04 04:49:37;;;;;;;5.03;1.45;;;17.50;1.00;;;;;;4782812;30;20492;-43
2023/05/04 04:52:04;;;;;;;5.32;2.88;;;17.50;1.00;;;;;;4778612;29;20066;-44
2023/05/04 04:54:31;;;;;;;5.63;1.98;;;17.50;1.00;;;;;;4787202;30;20047;-43
2023/05/04 04:56:58;;;;;;;4.20;1.23;;;17.50;1.00;;;;;;4787474;30;20047;-44
2023/05/04 04:59:25;;;;;;;3.65;1.63;;;17.50;1.00;;;;;;4787511;30;20131;-43
2023/05/04 05:01:51;;;;;;;3.42;1.35;;;17.40;1.00;;;;;;4779738;30;20051;-45
2023/05/04 05:04:18;;;;;;;3.60;1.45;;;17.50;1.00;;;;;;4786984;30;20052;-43
2023/05/04 05:06:46;;;;;;;3.90;1.58;;;17.50;1.00;;;;;;4787136;30;20039;-43
2023/05/04 05:09:13;;;;;;;3.78;1.80;;;17.40;1.00;;;;;;4786991;30;20055;-43
2023/05/04 05:11:40;;;;;;;3.28;1.40;;;17.40;1.00;;;;;;4787342;30;20417;-43
2023/05/04 05:14:06;;;;;;;4.38;2.08;;;17.40;1.00;;;;;;4909921;24;20162;-42
2023/05/04 05:16:33;;;;;;;4.53;1.40;;;17.40;1.00;;;;;;4830666;29;20046;-44
2023/05/04 05:19:00;;;;;;;5.85;1.92;;;17.40;1.00;;;;;;4831849;29;20056;-43
2023/05/04 05:21:27;;;;;;;14.05;2.92;;;17.40;1.00;;;;;;4841240;29;20592;-44
2023/05/04 05:23:54;;;;;;;4.90;1.50;;;17.40;1.00;;;;;;4833885;29;20050;-42
2023/05/04 05:26:21;;;;;;;7.45;1.40;;;17.40;1.00;;;;;;4841382;29;20114;-44
2023/05/04 05:28:47;;;;;;;3.08;1.02;;;17.40;1.00;;;;;;4840310;29;20038;-44
2023/05/04 05:31:14;;;;;;;4.28;1.48;;;17.40;1.00;;;;;;4833635;29;20111;-42
2023/05/04 05:33:41;;;;;;;4.63;1.38;;;17.40;1.00;;;;;;4841272;29;20136;-43
2023/05/04 05:36:08;;;;;;;3.33;1.30;;;17.40;1.00;;;;;;4841298;29;20081;-43
2023/05/04 05:38:34;;;;;;;3.72;1.25;;;17.40;1.00;;;;;;4841310;29;20046;-43
2023/05/04 05:41:01;;;;;;;3.13;1.70;;;17.30;1.00;;;;;;4841291;29;20479;-43
2023/05/04 05:43:28;;;;;;;2.63;1.40;;;17.30;1.00;;;;;;4836270;29;21361;-43
2023/05/04 05:45:55;;;;;;;3.17;1.45;;;17.40;1.00;;;;;;4837536;29;20046;-44
2023/05/04 05:48:22;;;;;;;5.20;1.77;;;17.40;1.00;;;;;;4833937;29;20121;-43
2023/05/04 05:50:49;;;;;;;5.15;1.40;;;17.30;1.00;;;;;;4841239;29;20475;-44
2023/05/04 05:53:15;;;;;;;2.85;1.10;;;17.40;1.00;;;;;;4833222;29;20050;-44
2023/05/04 05:55:42;;;;;;;2.88;1.02;;;17.30;1.00;;;;;;4841040;29;20109;-43
2023/05/04 05:58:09;;;;;;;1.67;1.17;;;17.40;1.00;;;;;;4841117;29;20046;-43
2023/05/04 06:00:36;;;;;;;3.47;1.45;;;17.40;1.00;;;;;;4840898;29;20045;-43
2023/05/04 06:03:02;;;;;;;2.35;1.65;;;17.30;1.00;;;;;;4833434;29;20046;-44
2023/05/04 06:05:32;;;;;;;5.78;2.15;;;17.30;1.00;;;;;;4840935;29;20042;-43
2023/05/04 06:07:59;;;;;;;4.47;1.50;;;17.30;1.00;;;;;;4840922;29;20077;-44
2023/05/04 06:10:26;;;;;;;2.97;1.35;;;17.30;1.00;;;;;;4840970;29;20038;-42
2023/05/04 06:12:52;;;;;;;4.75;1.92;;;17.30;1.00;;;;;;4840773;29;20050;-43
2023/05/04 06:15:19;;;;;;;4.35;1.50;;;17.30;1.00;;;;;;4872790;23;20054;-43
2023/05/04 06:17:47;;;;;;;6.13;1.77;;;17.40;1.00;;;;;;4829766;29;20050;-45
2023/05/04 06:20:15;;;;;;;2.67;1.35;;;17.40;1.00;;;;;;4832614;29;20124;-43
2023/05/04 06:22:41;;;;;;;2.38;1.35;;;17.30;1.00;;;;;;4842831;29;20060;-45
2023/05/04 06:25:08;;;;;;;4.20;1.58;;;17.30;1.00;;;;;;4836605;29;20046;-43
2023/05/04 06:27:35;;;;;;;2.97;1.50;;;17.40;1.00;;;;;;4844488;29;20038;-43
2023/05/04 06:30:03;;;;;;;3.70;1.02;;;17.30;1.00;;;;;;4844356;29;20125;-44
2023/05/04 06:32:30;;;;;;;5.07;1.23;;;17.40;1.00;;;;;;4836275;29;20057;-45
2023/05/04 06:34:58;;;;;;;2.78;1.30;;;17.40;1.00;;;;;;4844121;29;20106;-43
2023/05/04 06:37:25;;;;;;;2.78;1.30;;;17.30;1.00;;;;;;4843023;29;20053;-43
2023/05/04 06:39:53;;;;;;;4.07;1.42;;;17.40;1.00;;;;;;4843294;29;20042;-43
2023/05/04 06:42:20;;;;;;;2.95;1.20;;;17.40;1.00;;;;;;4844027;29;20045;-44
2023/05/04 06:44:50;;;;;;;3.20;1.63;;;17.40;1.00;;;;;;4941499;23;20054;-43
2023/05/04 06:47:16;;;;;;;2.33;1.10;;;17.40;1.00;;;;;;4837016;29;20045;-43
2023/05/04 06:49:43;;;;;;;3.05;1.15;;;17.40;1.00;;;;;;4833190;29;20059;-44
2023/05/04 06:52:10;;;;;;;3.67;1.05;;;17.40;1.00;;;;;;4842399;29;20079;-43
2023/05/04 06:54:38;;;;;;;6.88;1.25;;;17.40;1.00;;;;;;4839045;29;20038;-43
2023/05/04 06:57:05;;;;;;;2.83;1.27;;;17.40;1.00;;;;;;4841578;29;20530;-43
2023/05/04 06:59:32;;;;;;;2.58;1.27;;;17.50;1.00;;;;;;4843983;29;20046;-43
2023/05/04 07:01:59;;;;;;;4.35;1.38;;;17.40;1.00;;;;;;4843416;29;20042;-44
2023/05/04 07:04:26;;;;;;;4.40;1.58;;;17.50;1.00;;;;;;4836154;29;20079;-44
2023/05/04 07:06:53;;;;;;;2.00;1.45;;;17.50;1.00;;;;;;4843785;29;20494;-43
2023/05/04 07:09:20;;;;;;;2.33;1.20;;;17.50;1.00;;;;;;4843655;29;20497;-43
2023/05/04 07:11:47;;;;;;;3.13;1.58;;;17.50;1.00;;;;;;4844375;29;20053;-44
2023/05/04 07:14:15;;;;;;;2.95;1.60;;;17.50;1.00;;;;;;4843396;29;20503;-44
2023/05/04 07:16:41;;;;;;;5.07;1.70;;;17.50;1.00;;;;;;4829162;29;20129;-44
2023/05/04 07:19:09;;;;;;;4.45;1.55;;;17.50;1.00;;;;;;4834392;29;20494;-44
2023/05/04 07:21:36;;;;;;;4.28;1.55;;;17.60;1.00;;;;;;4834567;29;20545;-45
2023/05/04 07:24:04;;;;;;;2.33;1.40;;;17.60;1.00;;;;;;4842838;29;20061;-43
2023/05/04 07:26:30;;;;;;;2.30;1.20;;;17.60;1.00;;;;;;4834908;29;20126;-44
2023/05/04 07:28:57;;;;;;;3.65;1.25;;;17.60;1.00;;;;;;4843859;29;20092;-45
2023/05/04 07:31:24;;;;;;;3.25;1.60;;;17.70;1.00;;;;;;4843188;29;20237;-44
2023/05/04 07:33:53;;;;;;;1.92;0.98;;;17.70;1.00;;;;;;4835310;29;20053;-44
2023/05/04 07:36:19;;;;;;;3.17;1.45;;;17.70;1.00;;;;;;4843065;29;20054;-44
2023/05/04 07:38:46;;;;;;;3.45;1.17;;;17.70;1.00;;;;;;4835761;29;20633;-42
2023/05/04 07:41:13;;;;;;;1.63;1.00;;;17.70;1.00;;;;;;4843090;29;20049;-42
2023/05/04 07:43:40;;;;;;;3.80;1.98;;;17.70;1.00;;;;;;4842993;29;20038;-43
2023/05/04 07:46:07;;;;;;;1.83;1.10;;;17.70;1.00;;;;;;4920828;23;20552;-43
2023/05/04 07:48:34;;;;;;;2.80;1.15;;;17.70;1.00;;;;;;4828669;29;20035;-43
2023/05/04 07:51:00;;;;;;;4.88;1.48;;;17.70;1.00;;;;;;4832406;29;20081;-44
2023/05/04 07:53:27;;;;;;;2.38;1.40;;;17.70;1.00;;;;;;4835414;29;20563;-43
2023/05/04 07:55:56;;;;;;;1.67;1.15;;;17.80;1.00;;;;;;4835887;29;20055;-44
2023/05/04 07:58:23;;;;;;;1.90;1.27;;;17.80;1.00;;;;;;4842194;29;20052;-43
2023/05/04 08:00:49;;;;;;;3.42;1.25;;;17.80;1.00;;;;;;4842915;29;20070;-43
2023/05/04 08:03:16;;;;;;;3.33;1.42;;;17.80;1.00;;;;;;4840673;29;20045;-44
2023/05/04 08:05:43;;;;;;;2.53;1.35;;;17.90;1.00;;;;;;4836954;29;20048;-43
2023/05/04 08:08:10;;;;;;;2.25;1.20;;;17.90;1.00;;;;;;4842432;29;20050;-43
2023/05/04 08:10:37;;;;;;;2.97;1.10;;;17.90;1.00;;;;;;4842751;29;20092;-43
2023/05/04 08:13:04;;;;;;;1.92;1.08;;;17.90;1.00;;;;;;4842349;29;20470;-44
2023/05/04 08:15:31;;;;;;;3.08;1.30;;;18.00;1.00;;;;;;4842499;29;20407;-44
2023/05/04 08:17:58;;;;;;;2.67;1.30;;;18.00;1.00;;;;;;4825758;29;20050;-44
2023/05/04 08:20:24;;;;;;;3.05;1.60;;;18.00;1.00;;;;;;4834029;29;20049;-44
2023/05/04 08:22:52;;;;;;;4.25;1.90;;;18.00;1.00;;;;;;4834623;29;20061;-43
2023/05/04 08:25:20;;;;;;;4.35;1.13;;;18.00;1.00;;;;;;4840267;29;20049;-45
2023/05/04 08:27:47;;;;;;;3.10;1.58;;;18.00;1.00;;;;;;4837136;29;20049;-43
2023/05/04 08:30:15;;;;;;;5.47;1.38;;;18.10;1.00;;;;;;4842404;29;20045;-44
2023/05/04 08:32:42;;;;;;;3.30;1.45;;;18.10;1.00;;;;;;4842568;29;20082;-43
2023/05/04 08:35:09;;;;;;;3.35;1.25;;;18.10;1.00;;;;;;4834326;29;20045;-43
2023/05/04 08:37:36;;;;;;;4.15;1.48;;;18.10;1.00;;;;;;4842126;29;20099;-43
2023/05/04 08:40:04;;;;;;;4.43;1.27;;;18.10;1.00;;;;;;4842338;29;20046;-43
2023/05/04 08:42:32;;;;;;;3.45;1.55;;;18.20;1.00;;;;;;4841953;29;20309;-44
2023/05/04 08:44:59;;;;;;;3.00;1.30;;;18.20;1.00;;;;;;4840946;29;20050;-42
2023/05/04 08:47:27;;;;;;;3.10;1.23;;;18.20;1.00;;;;;;4904868;23;20150;-44
2023/05/04 08:49:55;;;;;;;4.20;1.38;;;18.20;1.00;;;;;;4828105;29;20050;-43
2023/05/04 08:52:23;;;;;;;3.38;1.40;;;18.20;1.00;;;;;;4833459;29;20049;-43
2023/05/04 08:54:55;;;;;;;2.83;1.45;;;18.20;1.00;;;;;;4841787;29;20049;-43
2023/05/04 08:57:23;;;;;;;4.07;1.88;;;18.20;1.00;;;;;;4834468;29;20050;-45
2023/05/04 08:59:54;;;;;;;2.53;1.33;;;18.30;1.00;;;;;;4841994;29;20057;-42
2023/05/04 09:02:23;;;;;;;2.45;1.40;;;18.30;1.00;;;;;;4832556;29;20046;-43
2023/05/04 09:04:52;;;;;;;3.70;1.08;;;18.30;1.00;;;;;;4827935;29;20104;-43
2023/05/04 09:07:20;;;;;;;3.67;1.30;;;18.30;1.00;;;;;;4841781;29;20038;-43
2023/05/04 09:09:49;;;;;;;2.72;1.63;;;18.30;1.00;;;;;;4841943;29;20054;-43
2023/05/04 09:12:18;;;;;;;4.50;1.50;;;18.30;1.00;;;;;;4842030;29;20042;-43
2023/05/04 09:14:45;;;;;;;5.45;1.60;;;18.30;1.00;;;;;;4841507;29;20046;-43
2023/05/04 09:17:23;;;;;;;3.53;1.42;;;18.30;1.00;;;;;;4840111;29;20179;-43
2023/05/04 09:20:01;;;;;;;2.22;1.10;;;18.40;1.00;;;;;;4839824;29;20124;-46
2023/05/04 09:22:28;;;;;;;5.68;1.10;;;18.40;1.00;;;;;;4830141;29;20042;-46
2023/05/04 09:25:10;;;;;;;2.47;1.00;;;18.40;1.00;;;;;;4836831;29;20042;-42
2023/05/04 09:27:39;;;;;;;2.10;0.82;;;18.40;1.00;;;;;;4834011;29;20041;-44
2023/05/04 09:30:07;;;;;;;4.47;1.20;;;18.40;1.00;;;;;;4841781;29;20052;-42
2023/05/04 09:32:45;;;;;;;4.22;1.10;;;18.50;1.00;;;;;;4841705;29;20521;-42
2023/05/04 09:35:13;;;;;;;2.58;1.45;;;18.50;1.00;;;;;;4833874;29;20065;-43
2023/05/04 09:37:58;;;;;;;2.10;0.75;;;18.50;1.00;;;;;;4841355;29;20057;-42
2023/05/04 09:40:37;;;;;;;2.53;1.10;;;18.50;1.00;;;;;;4826578;29;20134;-42
2023/05/04 09:43:05;;;;;;;3.70;1.10;;;18.50;1.00;;;;;;4841339;29;20046;-43
2023/05/04 09:45:42;;;;;;;5.20;1.52;;;18.50;1.00;;;;;;4841229;29;20038;-43
2023/05/04 09:48:27;;;;;;;4.13;1.48;;;18.50;1.00;;;;;;4836823;29;20611;-43
2023/05/04 09:50:56;;;;;;;1.75;1.30;;;18.50;1.00;;;;;;4826026;29;20054;-43
2023/05/04 09:53:30;;;;;;;3.35;1.20;;;18.50;1.00;;;;;;4830535;29;20495;-43
2023/05/04 09:56:03;;;;;;;2.65;1.23;;;18.50;1.00;;;;;;4830487;29;20042;-43
2023/05/04 09:58:32;;;;;;;3.30;1.25;;;18.60;1.00;;;;;;4837280;29;20125;-42
2023/05/04 10:01:00;;;;;;;1.92;1.10;;;18.60;1.00;;;;;;4843676;29;20188;-43
2023/05/04 10:03:27;;;;;;;4.93;1.40;;;18.60;1.00;;;;;;4844733;29;20120;-44
2023/05/04 10:05:56;;;;;;;3.65;1.55;;;18.60;1.00;;;;;;4839164;29;20495;-42
2023/05/04 10:08:24;;;;;;;2.67;1.23;;;18.60;1.00;;;;;;4843436;29;20042;-43
2023/05/04 10:10:51;;;;;;;3.25;1.48;;;18.60;1.00;;;;;;4845093;29;20376;-43
2023/05/04 10:13:18;;;;;;;3.65;1.33;;;18.60;1.00;;;;;;4844907;29;20049;-42
2023/05/04 10:16:10;;;;;;;4.47;1.40;;;18.60;1.00;;;;;;4844802;29;20046;-43
2023/05/04 10:18:42;;;;;;;5.75;1.35;;;18.60;1.00;;;;;;4841869;29;20646;-42
2023/05/04 10:21:30;;;;;;;3.67;1.63;;;18.60;1.00;;;;;;4836016;29;20038;-43
2023/05/04 10:24:21;;;;;;;2.15;1.23;;;18.60;1.00;;;;;;4834982;29;20491;-43
2023/05/04 10:27:03;;;;;;;4.25;1.23;;;18.60;1.00;;;;;;4844592;29;20529;-43
2023/05/04 10:29:34;;;;;;;1.85;0.95;;;18.60;1.00;;;;;;4843234;29;20046;-44
2023/05/04 10:32:02;;;;;;;2.22;1.30;;;18.60;1.00;;;;;;4844396;29;20050;-46
2023/05/04 10:34:31;;;;;;;4.15;1.40;;;18.60;1.00;;;;;;4843912;29;20503;-45
2023/05/04 10:36:59;;;;;;;4.20;1.33;;;18.60;1.00;;;;;;4836333;29;20062;-44
2023/05/04 10:39:31;;;;;;;3.30;1.50;;;18.60;1.00;;;;;;4842962;29;20125;-44
2023/05/04 10:42:02;;;;;;;1.50;1.15;;;18.60;1.00;;;;;;4844157;29;20052;-45
2023/05/04 10:44:31;;;;;;;5.50;1.38;;;18.60;1.00;;;;;;4843742;29;20117;-44
2023/05/04 10:47:04;;;;;;;2.28;1.38;;;18.60;1.00;;;;;;4843831;29;20073;-45
2023/05/04 10:49:32;;;;;;;5.47;1.63;;;18.60;1.00;;;;;;4844663;29;20053;-43
2023/05/04 10:52:15;;;;;;;3.20;1.52;;;18.60;1.00;;;;;;4844080;29;20042;-46
2023/05/04 10:54:42;;;;;;;4.53;1.67;;;18.60;1.00;;;;;;4836016;29;20504;-43
2023/05/04 10:57:12;;;;;;;4.72;1.48;;;18.60;1.00;;;;;;4843875;29;20777;-44
2023/05/04 10:59:40;;;;;;;3.45;1.35;;;18.60;1.00;;;;;;4843852;29;20057;-43
2023/05/04 11:02:07;;;;;;;3.20;1.63;;;18.60;1.00;;;;;;4843838;29;20404;-43
2023/05/04 11:04:35;;;;;;;3.90;1.73;;;18.50;1.00;;;;;;4843461;29;20037;-43
2023/05/04 11:07:07;;;;;;;3.15;1.50;;;18.60;1.00;;;;;;4843399;29;20046;-43
2023/05/04 11:09:39;;;;;;;4.93;1.63;;;18.60;1.00;;;;;;4843438;29;20042;-43
2023/05/04 11:12:09;;;;;;;2.70;1.35;;;18.60;1.00;;;;;;4843643;29;20115;-43
2023/05/04 11:14:41;;;;;;;2.83;1.73;;;18.60;1.00;;;;;;4843291;29;20136;-43
2023/05/04 11:17:09;;;;;;;5.50;1.52;;;18.60;1.00;;;;;;4843529;29;20050;-45
2023/05/04 11:19:53;;;;;;;3.72;1.30;;;18.50;1.00;;;;;;4904182;23;20054;-45
2023/05/04 11:22:20;;;;;;;6.40;1.80;;;18.60;1.00;;;;;;4836352;29;20562;-43
2023/05/04 11:24:47;;;;;;;3.17;1.55;;;18.60;1.00;;;;;;4832085;29;20048;-42
2023/05/04 11:27:27;;;;;;;4.55;1.70;;;18.60;1.00;;;;;;4840529;29;20042;-42
2023/05/04 11:29:58;;;;;;;3.33;0.95;;;18.50;1.00;;;;;;4837995;29;20046;-44
2023/05/04 11:32:42;;;;;;;3.60;1.48;;;18.50;1.00;;;;;;4841666;29;20120;-42
2023/05/04 11:35:15;;;;;;;3.58;2.13;;;18.50;1.00;;;;;;4843365;29;20056;-42
2023/05/04 11:37:43;;;;;;;2.65;1.52;;;18.50;1.00;;;;;;4839589;29;20133;-43
2023/05/04 11:40:18;;;;;;;2.83;1.65;;;18.50;1.00;;;;;;4839461;29;20048;-42
2023/05/04 11:42:48;;;;;;;2.22;1.10;;;18.50;1.00;;;;;;4843188;29;20061;-43
2023/05/04 11:45:22;;;;;;;4.88;1.80;;;18.50;1.00;;;;;;4842993;29;20042;-43
2023/05/04 11:47:51;;;;;;;2.53;1.45;;;18.50;1.00;;;;;;4842978;29;20054;-43
2023/05/04 11:50:19;;;;;;;5.00;1.60;;;18.50;1.00;;;;;;4843295;29;20424;-43
2023/05/04 11:52:47;;;;;;;4.03;1.48;;;18.50;1.00;;;;;;4842869;29;20057;-44
2023/05/04 11:55:27;;;;;;;3.00;1.90;;;18.50;1.00;;;;;;4835124;29;20050;-42
2023/05/04 11:57:58;;;;;;;4.55;1.63;;;18.50;1.00;;;;;;4837133;29;20461;-43
2023/05/04 12:00:45;;;;;;;1.90;1.02;;;18.50;1.00;;;;;;4842761;29;20045;-44
2023/05/04 12:03:16;;;;;;;6.95;1.95;;;18.50;1.00;;;;;;4841370;29;20056;-45
2023/05/04 12:05:57;;;;;;;2.10;1.63;;;18.50;1.00;;;;;;4842605;29;20050;-43
2023/05/04 12:08:33;;;;;;;2.13;1.13;;;18.50;1.00;;;;;;4841291;29;20315;-42
2023/05/04 12:11:19;;;;;;;2.50;1.10;;;18.50;1.00;;;;;;4835138;29;20098;-43
2023/05/04 12:13:47;;;;;;;3.33;1.60;;;18.50;1.00;;;;;;4842444;29;20792;-43
2023/05/04 12:16:16;;;;;;;3.55;1.65;;;18.50;1.00;;;;;;4842406;29;20042;-44
2023/05/04 12:18:45;;;;;;;1.48;0.90;;;18.50;1.00;;;;;;4842284;29;20132;-44
2023/05/04 12:21:14;;;;;;;3.67;1.30;;;18.50;1.00;;;;;;4836231;29;20050;-43
2023/05/04 12:23:41;;;;;;;7.28;2.15;;;18.50;1.00;;;;;;4831881;29;20076;-43
2023/05/04 12:26:09;;;;;;;4.22;1.50;;;18.50;1.00;;;;;;4831433;29;20042;-43
2023/05/04 12:28:36;;;;;;;3.47;1.40;;;18.50;1.00;;;;;;4841616;29;20042;-44
2023/05/04 12:31:04;;;;;;;3.38;1.20;;;18.50;1.00;;;;;;4834474;29;20052;-45
2023/05/04 12:33:31;;;;;;;3.28;1.33;;;18.50;1.00;;;;;;4840924;29;20048;-45
2023/05/04 12:35:59;;;;;;;3.70;1.13;;;18.50;1.00;;;;;;4842075;29;20050;-43
2023/05/04 12:38:26;;;;;;;6.95;1.65;;;18.50;1.00;;;;;;4834518;29;20099;-43
2023/05/04 12:40:54;;;;;;;2.63;1.30;;;18.50;1.00;;;;;;4842235;29;20551;-45
2023/05/04 12:43:24;;;;;;;3.35;1.35;;;18.50;1.00;;;;;;4841864;29;20178;-45
2023/05/04 12:45:51;;;;;;;2.15;1.25;;;18.50;1.00;;;;;;4841997;29;20046;-43
2023/05/04 12:48:19;;;;;;;3.35;0.98;;;18.50;1.00;;;;;;4842067;29;20042;-43
2023/05/04 12:50:47;;;;;;;2.67;1.30;;;18.50;1.00;;;;;;4842093;29;20042;-43
2023/05/04 12:53:15;;;;;;;2.97;1.35;;;18.50;1.00;;;;;;4833361;29;20511;-43
2023/05/04 12:55:42;;;;;;;4.40;1.15;;;18.50;1.00;;;;;;4832260;29;20102;-45
2023/05/04 12:58:09;;;;;;;4.15;1.52;;;18.50;1.00;;;;;;4834304;29;20483;-43
2023/05/04 13:00:37;;;;;;;4.28;1.38;;;18.60;1.00;;;;;;4839779;29;20038;-43
2023/05/04 13:03:04;;;;;;;2.70;0.93;;;18.60;1.00;;;;;;4836571;29;20116;-43
2023/05/04 13:05:32;;;;;;;5.93;2.55;;;18.50;1.00;;;;;;4833932;29;20042;-45
2023/05/04 13:07:58;;;;;;;5.93;1.38;;;18.60;1.00;;;;;;4841501;29;20046;-46